Time;durP1;ratioP1;P1;durP2;ratioP2;P2;SDS_P1;SDS_P2;PMS_P1;PMS_P2;Temp;Humidity;BMP_temperature;BMP_pressure;BME280_temperature;BME280_humidity;BME280_pressure;Samples;Min_cycle;Max_cycle;Signal;HPM_P1;HPM_P2
2023/05/21 00:00:46;;;;;;;5.93;5.43;;;;;;;13.06;78.81;101610.88;5061819;28;20020;-84
2023/05/21 00:03:14;;;;;;;6.03;5.43;;;;;;;12.97;79.18;101608.66;5062750;28;20028;-83
2023/05/21 00:05:40;;;;;;;5.72;5.22;;;;;;;13.04;79.78;101614.56;5061672;28;20115;-84
2023/05/21 00:08:05;;;;;;;6.05;5.55;;;;;;;12.94;79.77;101615.00;5040069;28;20103;-84
2023/05/21 00:10:31;;;;;;;6.85;6.15;;;;;;;12.95;80.42;101607.84;5061782;28;20599;-84
2023/05/21 00:12:56;;;;;;;6.47;5.85;;;;;;;12.96;80.50;101604.25;5039224;28;20052;-84
2023/05/21 00:15:22;;;;;;;6.55;5.90;;;;;;;12.88;80.75;101617.13;5059086;28;20427;-84
2023/05/21 00:17:47;;;;;;;6.75;6.00;;;;;;;12.86;81.24;101606.50;5061363;28;20028;-83
2023/05/21 00:20:12;;;;;;;7.05;6.35;;;;;;;12.90;80.75;101601.88;5059775;28;20521;-84
2023/05/21 00:22:39;;;;;;;6.55;5.85;;;;;;;12.87;81.31;101599.34;5055030;28;20028;-83
2023/05/21 00:25:05;;;;;;;6.72;6.13;;;;;;;12.78;81.23;101597.13;5060712;28;20394;-83
2023/05/21 00:27:30;;;;;;;7.03;6.32;;;;;;;12.70;81.93;101592.13;5061337;28;20055;-83
2023/05/21 00:29:55;;;;;;;8.27;6.45;;;;;;;12.71;81.56;101588.56;5059730;28;20095;-84
2023/05/21 00:32:21;;;;;;;7.05;6.22;;;;;;;12.75;82.39;101589.25;5045379;28;20043;-84
2023/05/21 00:34:47;;;;;;;6.78;6.13;;;;;;;12.66;82.31;101593.22;5058225;28;20456;-83
2023/05/21 00:37:14;;;;;;;6.55;5.93;;;;;;;12.67;82.99;101592.31;5059642;28;20104;-84
2023/05/21 00:39:39;;;;;;;7.43;6.20;;;;;;;12.53;82.99;101586.72;5055222;28;20025;-84
2023/05/21 00:42:05;;;;;;;6.40;5.88;;;;;;;12.52;83.38;101588.53;5055678;28;20573;-84
2023/05/21 00:44:33;;;;;;;8.07;6.47;;;;;;;12.59;83.30;101589.13;5058839;28;20120;-84
2023/05/21 00:47:02;;;;;;;7.78;6.40;;;;;;;12.54;83.65;101586.69;5056317;28;20029;-84
2023/05/21 00:49:29;;;;;;;7.93;6.45;;;;;;;12.44;83.90;101588.91;5060413;28;20355;-83
2023/05/21 00:51:55;;;;;;;7.50;6.43;;;;;;;12.43;84.14;101587.16;5060993;28;20028;-84
2023/05/21 00:54:22;;;;;;;7.25;6.55;;;;;;;12.38;84.43;101591.00;5038629;28;20025;-84
2023/05/21 00:56:48;;;;;;;6.85;6.20;;;;;;;12.33;85.24;101585.88;5042885;28;20024;-84
2023/05/21 00:59:16;;;;;;;7.57;6.70;;;;;;;12.27;85.41;101582.63;5059021;28;20081;-84
2023/05/21 01:01:44;;;;;;;6.70;6.20;;;;;;;12.13;85.96;101591.28;5053282;28;20035;-84
2023/05/21 01:04:10;;;;;;;7.90;6.53;;;;;;;12.15;86.44;101590.25;5058099;28;20336;-83
2023/05/21 01:06:36;;;;;;;7.15;6.35;;;;;;;12.05;87.17;101588.06;5056838;28;20025;-84
2023/05/21 01:09:04;;;;;;;6.97;6.30;;;;;;;11.95;87.24;101584.94;5059116;28;20036;-84
2023/05/21 01:11:41;;;;;;;10.98;7.07;;;;;;;11.94;87.37;101586.75;5054485;28;20435;-84
2023/05/21 01:14:09;;;;;;;7.05;6.45;;;;;;;11.94;88.12;101583.22;5058239;28;20040;-84
2023/05/21 01:16:36;;;;;;;6.72;5.97;;;;;;;11.92;88.05;101590.44;5060607;28;20027;-83
2023/05/21 01:19:04;;;;;;;7.30;6.50;;;;;;;11.85;88.36;101584.50;5060256;28;20140;-83
2023/05/21 01:21:29;;;;;;;8.38;6.68;;;;;;;11.96;88.08;101587.56;5055982;28;20107;-82
2023/05/21 01:23:55;;;;;;;6.65;6.05;;;;;;;11.82;88.40;101584.56;5058999;28;20030;-83
2023/05/21 01:26:21;;;;;;;7.72;6.07;;;;;;;11.91;88.79;101586.00;5041571;28;20031;-82
2023/05/21 01:28:46;;;;;;;8.23;6.13;;;;;;;11.88;88.79;101581.69;5054834;28;20037;-82
2023/05/21 01:31:41;;;;;;;7.82;6.28;;;;;;;11.87;88.79;101581.75;5053474;28;20024;-83
2023/05/21 01:34:10;;;;;;;8.38;6.68;;;;;;;11.72;90.08;101577.94;5053391;28;20110;-82
2023/05/21 01:36:42;;;;;;;7.28;6.57;;;;;;;11.73;90.02;101575.19;5040236;28;20032;-83
2023/05/21 01:39:34;;;;;;;8.15;7.30;;;;;;;11.75;89.84;101580.47;5034734;28;20024;-83
2023/05/21 01:42:03;;;;;;;7.10;6.45;;;;;;;11.70;90.50;101577.13;5060417;28;20187;-83
2023/05/21 01:44:29;;;;;;;7.53;6.82;;;;;;;11.72;90.48;101585.94;5042594;28;20012;-83
2023/05/21 01:46:56;;;;;;;7.82;6.80;;;;;;;11.83;90.48;101582.81;5058309;28;20025;-83
2023/05/21 01:49:22;;;;;;;8.25;7.45;;;;;;;11.68;91.21;101581.66;5040691;28;20075;-83
2023/05/21 01:51:48;;;;;;;8.10;7.30;;;;;;;11.73;90.91;101575.19;5061534;28;20063;-83
2023/05/21 01:54:13;;;;;;;7.70;7.00;;;;;;;11.72;91.16;101576.13;5059507;28;20772;-83
2023/05/21 01:56:39;;;;;;;8.38;7.55;;;;;;;11.80;90.88;101573.13;5055406;28;20027;-83
2023/05/21 01:59:04;;;;;;;8.20;7.40;;;;;;;11.75;91.23;101569.81;5040757;28;20162;-83
2023/05/21 02:01:30;;;;;;;8.98;7.63;;;;;;;11.78;91.02;101568.78;5038765;28;20024;-83
2023/05/21 02:03:56;;;;;;;8.02;7.30;;;;;;;11.76;91.50;101568.00;5061264;28;20104;-83
2023/05/21 02:06:22;;;;;;;9.95;7.40;;;;;;;11.75;91.62;101572.47;5040219;28;20024;-83
2023/05/21 02:08:48;;;;;;;8.70;7.90;;;;;;;11.74;91.51;101568.06;5059597;28;20025;-83
2023/05/21 02:11:13;;;;;;;9.10;7.88;;;;;;;11.78;91.55;101566.97;5054380;28;20016;-83
2023/05/21 02:13:41;;;;;;;8.57;7.70;;;;;;;11.77;91.68;101564.41;5056631;28;20020;-83
2023/05/21 02:16:10;;;;;;;9.13;8.13;;;;;;;11.77;91.90;101565.25;5061142;28;20028;-83
2023/05/21 02:18:36;;;;;;;9.80;8.75;;;;;;;11.80;91.75;101567.78;5052191;28;20025;-83
2023/05/21 02:21:01;;;;;;;10.40;8.18;;;;;;;11.73;92.07;101561.00;5059993;28;20037;-83
2023/05/21 02:23:26;;;;;;;9.15;8.25;;;;;;;11.73;92.29;101563.66;5042353;28;20034;-83
2023/05/21 02:25:52;;;;;;;8.75;7.95;;;;;;;11.75;91.96;101556.47;5060922;28;20028;-83
2023/05/21 02:28:17;;;;;;;9.20;8.27;;;;;;;11.73;92.73;101566.31;5053637;28;20452;-83
2023/05/21 02:30:43;;;;;;;8.82;8.00;;;;;;;11.65;92.67;101556.00;5057738;28;20390;-83
2023/05/21 02:33:08;;;;;;;8.27;7.57;;;;;;;11.71;92.72;101558.41;5042764;28;20081;-83
2023/05/21 02:35:33;;;;;;;8.52;7.75;;;;;;;11.70;92.43;101556.69;5038935;28;20035;-83
2023/05/21 02:38:01;;;;;;;8.60;7.65;;;;;;;11.65;92.70;101558.66;5058877;28;20430;-83
2023/05/21 02:40:27;;;;;;;8.70;7.90;;;;;;;11.63;92.96;101557.88;5057055;28;20093;-84
2023/05/21 02:42:52;;;;;;;8.18;7.38;;;;;;;11.63;93.07;101562.34;5057721;28;20040;-83
2023/05/21 02:45:18;;;;;;;7.88;7.07;;;;;;;11.62;93.38;101563.25;5054508;28;20028;-83
2023/05/21 02:47:43;;;;;;;8.15;7.35;;;;;;;11.59;93.68;101560.75;5036933;28;20043;-83
2023/05/21 02:50:08;;;;;;;7.80;7.18;;;;;;;11.62;93.04;101556.16;5058501;28;20078;-84
2023/05/21 02:52:34;;;;;;;7.45;6.75;;;;;;;11.60;93.47;101549.13;5057246;28;20393;-84
2023/05/21 02:54:59;;;;;;;8.15;6.80;;;;;;;11.62;93.01;101542.81;5055375;28;20474;-83
2023/05/21 02:57:25;;;;;;;8.05;7.35;;;;;;;11.56;93.51;101542.22;5057530;28;20044;-84
2023/05/21 02:59:50;;;;;;;8.05;7.25;;;;;;;11.51;94.02;101541.53;5043344;28;20028;-84
2023/05/21 03:02:16;;;;;;;7.35;6.75;;;;;;;11.54;93.86;101542.28;5056993;28;20032;-83
2023/05/21 03:04:45;;;;;;;7.82;7.03;;;;;;;11.51;94.27;101544.22;5057193;28;20048;-82
2023/05/21 03:07:14;;;;;;;8.07;7.10;;;;;;;11.46;94.70;101542.63;5058684;28;20056;-82
2023/05/21 03:09:40;;;;;;;8.13;7.25;;;;;;;11.53;94.84;101539.66;5057984;28;20027;-83
2023/05/21 03:12:06;;;;;;;7.80;6.97;;;;;;;11.47;94.64;101530.16;5040768;28;20458;-83
2023/05/21 03:14:32;;;;;;;7.80;7.00;;;;;;;11.52;94.84;101529.94;5032415;28;20130;-83
2023/05/21 03:16:58;;;;;;;8.18;7.35;;;;;;;11.40;95.51;101521.53;5054875;28;20405;-83
2023/05/21 03:19:23;;;;;;;7.40;6.65;;;;;;;11.48;95.44;101530.06;5032740;28;20035;-83
2023/05/21 03:21:49;;;;;;;8.40;7.53;;;;;;;11.45;95.40;101527.56;5057841;28;20025;-82
2023/05/21 03:24:15;;;;;;;9.80;7.07;;;;;;;11.46;95.83;101531.94;5058961;28;20033;-83
2023/05/21 03:26:40;;;;;;;8.38;7.50;;;;;;;11.52;96.10;101532.59;5052799;28;20025;-83
2023/05/21 03:29:05;;;;;;;9.13;7.35;;;;;;;11.50;96.35;101529.16;5050207;28;20091;-83
2023/05/21 03:31:31;;;;;;;8.07;7.28;;;;;;;11.45;96.11;101524.00;5058354;28;20024;-84
2023/05/21 03:33:56;;;;;;;7.75;7.00;;;;;;;11.52;96.08;101529.94;5051104;28;20036;-83
2023/05/21 03:36:21;;;;;;;7.57;6.88;;;;;;;11.50;96.26;101532.69;5058123;28;20062;-83
2023/05/21 03:38:47;;;;;;;8.18;7.38;;;;;;;11.47;96.68;101535.47;5033897;28;20025;-83
2023/05/21 03:41:12;;;;;;;7.72;6.93;;;;;;;11.40;97.12;101532.19;5054404;28;20486;-83
2023/05/21 03:43:37;;;;;;;8.02;7.22;;;;;;;11.49;96.66;101536.25;5057531;28;20051;-83
2023/05/21 03:46:03;;;;;;;8.30;7.35;;;;;;;11.50;97.12;101534.50;5056051;28;20032;-83
2023/05/21 03:48:28;;;;;;;7.72;7.03;;;;;;;11.46;97.33;101531.09;5055023;28;20028;-82
2023/05/21 03:50:54;;;;;;;9.73;7.75;;;;;;;11.39;97.84;101525.16;5053605;28;20036;-83
2023/05/21 03:53:19;;;;;;;7.90;7.10;;;;;;;11.48;97.92;101526.53;5052749;28;20040;-83
2023/05/21 03:55:46;;;;;;;8.55;7.18;;;;;;;11.46;98.08;101525.75;5053883;28;20052;-82
2023/05/21 03:58:11;;;;;;;8.45;7.63;;;;;;;11.45;97.95;101519.56;5053496;28;20029;-82
2023/05/21 04:00:36;;;;;;;7.40;6.70;;;;;;;11.45;98.23;101522.22;5057683;28;20480;-82
2023/05/21 04:03:05;;;;;;;8.93;7.40;;;;;;;11.50;98.39;101521.16;5053283;28;20029;-83
2023/05/21 04:05:31;;;;;;;8.35;7.40;;;;;;;11.48;98.45;101516.75;5056492;28;20033;-83
2023/05/21 04:07:57;;;;;;;8.57;7.68;;;;;;;11.49;98.61;101520.28;5034064;28;20190;-83
2023/05/21 04:10:24;;;;;;;8.68;7.10;;;;;;;11.52;98.83;101522.81;5058305;28;20376;-84
2023/05/21 04:12:51;;;;;;;8.80;7.82;;;;;;;11.50;98.83;101526.50;5050585;28;20045;-84
2023/05/21 04:15:17;;;;;;;8.65;7.85;;;;;;;11.50;99.08;101527.34;5036898;28;20093;-82
2023/05/21 04:17:44;;;;;;;8.10;7.45;;;;;;;11.61;98.66;101530.41;5056849;28;20032;-83
2023/05/21 04:20:10;;;;;;;8.32;7.43;;;;;;;11.51;98.94;101518.41;5061277;28;20158;-82
2023/05/21 04:22:36;;;;;;;8.10;7.30;;;;;;;11.65;99.05;101536.47;5057459;28;20021;-83
2023/05/21 04:25:02;;;;;;;8.75;7.45;;;;;;;11.68;98.73;101537.19;5060329;28;20035;-82
2023/05/21 04:27:27;;;;;;;8.48;7.72;;;;;;;11.68;98.54;101531.00;5062547;28;20024;-83
2023/05/21 04:29:53;;;;;;;8.27;7.43;;;;;;;11.75;98.39;101527.13;5063538;28;20405;-82
2023/05/21 04:32:20;;;;;;;9.57;7.38;;;;;;;11.81;98.26;101540.19;5059763;28;20021;-82
2023/05/21 04:34:45;;;;;;;7.88;7.15;;;;;;;11.82;98.36;101539.25;5062810;28;20487;-83
2023/05/21 04:37:11;;;;;;;9.77;7.68;;;;;;;11.83;98.40;101549.03;5061365;28;20084;-84
2023/05/21 04:39:36;;;;;;;9.25;7.40;;;;;;;11.84;98.19;101542.75;5062610;28;20031;-84
2023/05/21 04:42:02;;;;;;;8.20;7.50;;;;;;;11.88;98.24;101543.47;5055332;28;20113;-84
2023/05/21 04:44:28;;;;;;;10.75;8.15;;;;;;;11.96;98.17;101544.00;5059335;28;20104;-84
2023/05/21 04:46:56;;;;;;;7.50;6.80;;;;;;;11.98;97.59;101550.13;5058743;28;20060;-83
2023/05/21 04:49:21;;;;;;;8.80;8.00;;;;;;;12.02;97.73;101545.53;5045168;28;20029;-84
2023/05/21 04:51:48;;;;;;;8.65;7.63;;;;;;;11.99;97.98;101540.31;5054703;28;20044;-83
2023/05/21 04:54:13;;;;;;;10.68;8.05;;;;;;;12.11;97.39;101553.09;5062127;28;20020;-84
2023/05/21 04:56:39;;;;;;;8.63;7.82;;;;;;;12.11;97.47;101545.09;5049967;28;20035;-83
2023/05/21 04:59:05;;;;;;;8.13;7.32;;;;;;;12.18;97.01;101546.53;5058204;28;20017;-83
2023/05/21 05:01:31;;;;;;;8.85;8.02;;;;;;;12.20;97.15;101545.53;5039887;28;20029;-84
2023/05/21 05:03:56;;;;;;;8.65;7.85;;;;;;;12.26;97.24;101549.72;5059012;28;20032;-84
2023/05/21 05:06:24;;;;;;;8.45;7.65;;;;;;;12.32;97.26;101537.88;5041813;28;20051;-83
2023/05/21 05:08:50;;;;;;;8.85;8.02;;;;;;;12.37;96.32;101536.75;5060082;28;20024;-84
2023/05/21 05:11:15;;;;;;;9.00;8.10;;;;;;;12.44;95.80;101538.16;5057546;28;20047;-83
2023/05/21 05:13:41;;;;;;;8.75;7.90;;;;;;;12.45;96.14;101528.34;5056133;28;20016;-84
2023/05/21 05:16:06;;;;;;;8.55;7.72;;;;;;;12.50;95.84;101529.03;5055996;28;20032;-83
2023/05/21 05:18:32;;;;;;;9.88;8.57;;;;;;;12.51;95.65;101530.75;5056193;28;20031;-83
2023/05/21 05:20:58;;;;;;;8.45;7.65;;;;;;;12.65;95.08;101533.59;5062606;28;20028;-82
2023/05/21 05:23:24;;;;;;;9.13;8.27;;;;;;;12.71;95.04;101529.78;5058634;28;20024;-82
2023/05/21 05:25:50;;;;;;;9.25;8.45;;;;;;;12.73;95.00;101527.03;5063195;28;20032;-83
2023/05/21 05:28:16;;;;;;;8.63;7.72;;;;;;;12.79;94.79;101532.94;5056821;28;20476;-82
2023/05/21 05:30:41;;;;;;;8.90;8.00;;;;;;;12.87;94.17;101528.06;5056771;28;20090;-82
2023/05/21 05:33:06;;;;;;;10.10;8.35;;;;;;;12.92;93.87;101515.38;5063387;28;20560;-82
2023/05/21 05:35:32;;;;;;;9.00;8.10;;;;;;;12.94;93.54;101521.47;5060189;28;20061;-82
2023/05/21 05:37:57;;;;;;;9.48;7.78;;;;;;;13.08;93.71;101519.91;5061064;28;20505;-82
2023/05/21 05:40:22;;;;;;;9.55;8.57;;;;;;;13.12;93.25;101525.03;5054369;28;20178;-81
2023/05/21 05:42:48;;;;;;;8.85;7.95;;;;;;;13.23;92.55;101527.19;5056607;28;20138;-82
2023/05/21 05:45:13;;;;;;;9.05;7.97;;;;;;;13.25;92.54;101536.03;5051692;28;20017;-83
2023/05/21 05:47:39;;;;;;;9.15;8.25;;;;;;;13.32;92.48;101537.41;5051191;28;20024;-82
2023/05/21 05:50:05;;;;;;;8.88;7.85;;;;;;;13.36;91.83;101535.47;5053365;28;20067;-82
2023/05/21 05:52:30;;;;;;;9.90;8.32;;;;;;;13.39;91.73;101522.81;5055899;28;20314;-82
2023/05/21 05:54:55;;;;;;;10.35;9.35;;;;;;;13.52;90.92;101527.50;5058532;28;20024;-82
2023/05/21 05:57:21;;;;;;;9.55;8.55;;;;;;;13.59;91.15;101532.47;5057705;28;20024;-82
2023/05/21 05:59:46;;;;;;;9.57;8.57;;;;;;;13.68;90.56;101528.44;5055676;28;20108;-82
2023/05/21 06:02:11;;;;;;;8.95;8.15;;;;;;;13.80;90.64;101525.13;5055658;28;20029;-82
2023/05/21 06:04:37;;;;;;;9.18;8.30;;;;;;;13.94;89.97;101529.72;5017013;28;20028;-81
2023/05/21 06:07:02;;;;;;;10.23;9.20;;;;;;;13.99;89.42;101530.31;5054533;28;20032;-82
2023/05/21 06:09:27;;;;;;;9.15;8.25;;;;;;;14.08;89.43;101537.00;5047359;28;20517;-81
2023/05/21 06:11:53;;;;;;;9.75;8.68;;;;;;;13.99;89.22;101538.34;5040237;28;20052;-83
2023/05/21 06:14:18;;;;;;;9.63;8.73;;;;;;;13.98;89.25;101541.13;5052897;28;20280;-81
2023/05/21 06:16:44;;;;;;;9.10;8.23;;;;;;;14.02;88.95;101540.00;5053425;28;20041;-82
2023/05/21 06:19:09;;;;;;;9.80;8.90;;;;;;;13.99;89.12;101533.00;5058294;28;20029;-82
2023/05/21 06:21:34;;;;;;;9.70;8.80;;;;;;;14.08;88.37;101531.63;5054435;28;20090;-84
2023/05/21 06:23:59;;;;;;;9.35;8.35;;;;;;;14.19;88.74;101530.09;5057044;28;20029;-83
2023/05/21 06:26:26;;;;;;;9.32;8.45;;;;;;;14.30;88.14;101536.69;5037509;28;20459;-84
2023/05/21 06:28:51;;;;;;;9.70;8.70;;;;;;;14.34;87.74;101530.22;5055603;28;20036;-84
2023/05/21 06:31:17;;;;;;;10.00;9.10;;;;;;;14.37;87.85;101532.72;5055358;28;20074;-84
2023/05/21 06:33:43;;;;;;;9.57;8.68;;;;;;;14.46;87.03;101534.88;5055195;28;20489;-83
2023/05/21 06:36:08;;;;;;;10.40;9.40;;;;;;;14.45;86.63;101527.78;5054282;28;20025;-83
2023/05/21 06:38:33;;;;;;;9.80;8.90;;;;;;;14.54;86.87;101531.78;5053757;28;20027;-85
2023/05/21 06:40:59;;;;;;;10.70;9.70;;;;;;;14.54;86.26;101540.69;5041211;28;20029;-84
2023/05/21 06:43:25;;;;;;;9.82;8.95;;;;;;;14.55;86.03;101539.75;5056304;28;20085;-83
2023/05/21 06:45:50;;;;;;;10.43;9.32;;;;;;;14.65;85.63;101542.78;5033403;28;20042;-84
2023/05/21 06:48:16;;;;;;;10.05;9.15;;;;;;;14.74;85.78;101536.88;5047916;28;20028;-84
2023/05/21 06:50:42;;;;;;;10.57;9.30;;;;;;;14.87;85.48;101542.41;5047692;28;20412;-82
2023/05/21 06:53:08;;;;;;;11.00;10.00;;;;;;;14.99;84.95;101541.69;5046618;28;20037;-82
2023/05/21 06:55:33;;;;;;;10.60;9.50;;;;;;;15.18;84.33;101533.44;5060093;28;20020;-83
2023/05/21 06:57:58;;;;;;;11.00;9.48;;;;;;;15.41;83.58;101526.69;5057482;28;20033;-83
2023/05/21 07:00:24;;;;;;;10.30;9.30;;;;;;;15.85;82.10;101523.16;5058052;28;20024;-83
2023/05/21 07:02:49;;;;;;;11.27;10.05;;;;;;;16.28;80.61;101524.00;5057472;28;20032;-83
2023/05/21 07:05:15;;;;;;;10.10;9.20;;;;;;;16.64;77.36;101519.91;5061062;28;20197;-83
2023/05/21 07:07:40;;;;;;;10.13;9.20;;;;;;;16.71;75.99;101515.81;5057648;28;20028;-83
2023/05/21 07:10:07;;;;;;;10.80;9.80;;;;;;;16.69;75.63;101512.38;5055151;28;20187;-83
2023/05/21 07:12:32;;;;;;;10.98;9.90;;;;;;;16.77;75.97;101510.09;5050574;28;20080;-84
2023/05/21 07:14:58;;;;;;;10.48;8.55;;;;;;;17.04;74.81;101511.88;5055409;28;20452;-84
2023/05/21 07:17:23;;;;;;;11.90;9.63;;;;;;;17.22;73.48;101518.69;5060266;28;20518;-84
2023/05/21 07:19:48;;;;;;;10.50;9.40;;;;;;;17.41;72.44;101500.34;5057854;28;20024;-83
2023/05/21 07:22:14;;;;;;;10.95;9.60;;;;;;;17.72;71.04;101513.47;5059636;28;20074;-83
2023/05/21 07:24:39;;;;;;;10.57;9.23;;;;;;;17.50;70.37;101512.28;5057794;28;20020;-82
2023/05/21 07:27:05;;;;;;;10.23;9.20;;;;;;;17.42;70.46;101512.81;5054844;28;20052;-82
2023/05/21 07:29:32;;;;;;;10.27;9.25;;;;;;;17.41;70.81;101499.47;5058369;28;20027;-83
2023/05/21 07:31:57;;;;;;;10.77;9.70;;;;;;;17.58;70.28;101499.16;5061309;28;20084;-83
2023/05/21 07:34:23;;;;;;;10.68;9.57;;;;;;;17.80;70.26;101495.00;5032965;28;20113;-82
2023/05/21 07:36:48;;;;;;;10.07;9.07;;;;;;;18.13;69.54;101507.88;5053739;28;20040;-83
2023/05/21 07:39:13;;;;;;;10.07;9.05;;;;;;;18.29;67.86;101497.72;5055851;28;20051;-84
2023/05/21 07:41:39;;;;;;;9.85;8.95;;;;;;;18.74;66.75;101502.56;5059316;28;20037;-83
2023/05/21 07:44:04;;;;;;;10.40;9.40;;;;;;;18.93;65.85;101508.28;5035260;28;20060;-83
2023/05/21 07:46:29;;;;;;;9.88;8.88;;;;;;;19.10;64.70;101502.47;5036594;28;20667;-82
2023/05/21 07:48:55;;;;;;;10.00;9.10;;;;;;;19.08;64.28;101500.88;5053599;28;20067;-83
2023/05/21 07:51:20;;;;;;;11.18;9.32;;;;;;;19.48;63.14;101503.19;5057213;28;20024;-81
2023/05/21 07:53:46;;;;;;;10.38;9.38;;;;;;;19.57;62.86;101503.34;5064161;28;20029;-83
2023/05/21 07:56:11;;;;;;;10.60;9.50;;;;;;;19.44;62.46;101501.69;5057743;28;20044;-83
2023/05/21 07:58:36;;;;;;;10.52;9.43;;;;;;;19.31;63.10;101507.19;5055873;28;20432;-82
2023/05/21 08:01:02;;;;;;;10.38;9.48;;;;;;;19.42;63.11;101510.78;5060650;28;20020;-83
2023/05/21 08:03:29;;;;;;;11.13;10.02;;;;;;;19.41;62.82;101508.22;5063085;28;20398;-83
2023/05/21 08:05:55;;;;;;;11.80;10.38;;;;;;;19.83;60.75;101501.31;5036375;28;20040;-83
2023/05/21 08:08:22;;;;;;;11.32;9.93;;;;;;;20.49;60.29;101503.28;5059505;28;20026;-84
2023/05/21 08:10:48;;;;;;;10.80;9.70;;;;;;;21.01;58.02;101504.31;5050360;28;20313;-83
2023/05/21 08:13:17;;;;;;;11.27;10.10;;;;;;;21.25;57.48;101507.66;5060877;28;20044;-84
2023/05/21 08:15:42;;;;;;;10.90;9.80;;;;;;;21.35;56.07;101497.78;5057717;28;20107;-83
2023/05/21 08:18:08;;;;;;;11.48;9.90;;;;;;;21.56;55.25;101499.63;5059537;28;20216;-84
2023/05/21 08:20:34;;;;;;;11.45;10.27;;;;;;;22.05;54.10;101493.44;5058086;28;20028;-83
2023/05/21 08:23:00;;;;;;;10.55;9.57;;;;;;;22.61;53.18;101487.50;5039132;28;20097;-83
2023/05/21 08:25:26;;;;;;;11.00;9.88;;;;;;;22.56;51.89;101487.06;5044198;28;20107;-83
2023/05/21 08:27:51;;;;;;;10.73;9.65;;;;;;;22.98;51.18;101488.69;5058057;28;20125;-83
2023/05/21 08:30:17;;;;;;;10.45;9.45;;;;;;;23.41;50.27;101487.34;5061856;28;20197;-83
2023/05/21 08:32:42;;;;;;;10.68;9.60;;;;;;;23.50;49.39;101490.06;5040137;28;20381;-82
2023/05/21 08:35:08;;;;;;;10.45;9.50;;;;;;;23.52;49.36;101500.78;5058430;28;20037;-83
2023/05/21 08:37:33;;;;;;;10.73;9.68;;;;;;;23.73;49.02;101495.19;5058035;28;20028;-83
2023/05/21 08:39:59;;;;;;;11.23;10.13;;;;;;;23.69;48.64;101493.75;5059926;28;20105;-82
2023/05/21 08:42:46;;;;;;;11.48;10.23;;;;;;;24.11;49.30;101488.72;5030738;28;20028;-83
2023/05/21 08:45:13;;;;;;;11.35;10.10;;;;;;;23.65;47.84;101493.19;5047335;28;20083;-83
2023/05/21 08:47:42;;;;;;;11.73;10.60;;;;;;;23.80;48.19;101491.72;5055043;28;20020;-83
2023/05/21 08:50:17;;;;;;;12.02;10.80;;;;;;;23.86;48.53;101487.56;5051299;28;20025;-83
2023/05/21 08:52:42;;;;;;;10.75;9.73;;;;;;;23.98;48.37;101474.63;5053664;28;20031;-83
2023/05/21 08:55:09;;;;;;;11.60;10.43;;;;;;;23.95;48.25;101474.91;5039434;28;20028;-84
2023/05/21 08:57:35;;;;;;;11.48;10.38;;;;;;;24.67;47.07;101481.44;5044890;28;20323;-84
2023/05/21 09:00:03;;;;;;;10.98;9.88;;;;;;;25.14;45.28;101482.06;5045265;28;20082;-83
2023/05/21 09:02:33;;;;;;;10.60;9.50;;;;;;;25.80;44.89;101484.28;5053607;28;20060;-84
2023/05/21 09:05:02;;;;;;;11.82;10.63;;;;;;;26.27;42.84;101483.78;5045907;28;20033;-84
2023/05/21 09:07:30;;;;;;;11.57;10.48;;;;;;;26.26;41.61;101470.31;5054288;28;20036;-83
2023/05/21 09:09:59;;;;;;;11.98;10.82;;;;;;;26.31;40.99;101477.00;5056274;28;20031;-83
2023/05/21 09:12:26;;;;;;;11.13;10.13;;;;;;;26.44;41.81;101473.81;5056508;28;20076;-83
2023/05/21 09:14:52;;;;;;;10.93;9.90;;;;;;;26.89;41.21;101472.53;5061861;28;20020;-83
2023/05/21 09:17:19;;;;;;;11.95;10.45;;;;;;;27.22;40.87;101484.38;5043963;28;20051;-83
2023/05/21 09:20:14;;;;;;;11.30;9.98;;;;;;;27.09;40.66;101478.53;5057825;28;20038;-84
2023/05/21 09:22:47;;;;;;;11.73;10.57;;;;;;;26.58;41.62;101473.16;5039223;28;20020;-84
2023/05/21 09:25:20;;;;;;;;;;;;;;;27.73;40.45;101475.94;5057045;28;20013;-84
2023/05/21 09:27:46;;;;;;;11.50;10.40;;;;;;;27.35;39.81;101477.53;5057172;28;20107;-84
2023/05/21 09:30:13;;;;;;;11.15;10.15;;;;;;;27.29;39.72;101474.44;5061323;28;20032;-84
2023/05/21 09:32:39;;;;;;;11.10;10.00;;;;;;;27.31;40.26;101469.66;5060249;28;20024;-84
2023/05/21 09:35:09;;;;;;;11.20;10.20;;;;;;;27.48;40.00;101478.69;5055344;28;20081;-84
2023/05/21 09:37:42;;;;;;;11.50;10.50;;;;;;;27.04;39.88;101478.16;5057517;28;20042;-85
2023/05/21 09:40:11;;;;;;;;;;;;;;;28.23;39.89;101472.00;5062610;28;20017;-84
2023/05/21 09:42:38;;;;;;;11.95;10.75;;;;;;;27.28;39.91;101470.00;5056907;28;19923;-84
2023/05/21 09:45:05;;;;;;;11.13;10.10;;;;;;;27.04;40.58;101475.44;5055332;28;20029;-83
2023/05/21 09:47:31;;;;;;;11.38;10.27;;;;;;;26.79;40.38;101472.69;5060742;28;20032;-84
2023/05/21 09:50:01;;;;;;;11.10;9.95;;;;;;;26.99;41.01;101473.22;5057418;28;20044;-84
2023/05/21 09:52:27;;;;;;;12.90;11.60;;;;;;;26.60;40.36;101462.09;5060392;28;20504;-84
2023/05/21 09:54:52;;;;;;;11.35;10.25;;;;;;;26.14;41.42;101458.84;5056488;28;20036;-83
2023/05/21 09:57:25;;;;;;;11.77;10.68;;;;;;;26.38;42.55;101458.09;5056941;28;20032;-83
2023/05/21 09:59:50;;;;;;;12.20;10.77;;;;;;;27.53;40.44;101462.59;5061364;28;20028;-84
2023/05/21 10:02:23;;;;;;;12.48;11.38;;;;;;;28.03;38.98;101460.63;5059555;28;20029;-83
2023/05/21 10:04:50;;;;;;;11.35;10.25;;;;;;;29.14;36.32;101459.47;5057874;28;20067;-83
2023/05/21 10:07:24;;;;;;;12.35;11.15;;;;;;;29.07;37.01;101453.84;5059369;28;20024;-84
2023/05/21 10:09:52;;;;;;;12.68;11.38;;;;;;;28.89;36.23;101456.03;5042635;28;20059;-84
2023/05/21 10:12:21;;;;;;;12.95;11.65;;;;;;;29.58;36.44;101450.47;5053017;28;20449;-83
2023/05/21 10:14:53;;;;;;;12.00;10.80;;;;;;;30.15;35.20;101447.91;5059666;28;20032;-84
2023/05/21 10:17:19;;;;;;;13.18;11.88;;;;;;;30.17;33.65;101451.31;5051288;28;20059;-84
2023/05/21 10:19:45;;;;;;;12.80;11.70;;;;;;;30.11;34.16;101443.81;5047908;28;20079;-85
2023/05/21 10:22:12;;;;;;;13.10;11.88;;;;;;;30.63;34.08;101445.50;5057780;28;20494;-84
2023/05/21 10:24:39;;;;;;;15.63;12.45;;;;;;;30.06;33.92;101442.69;5054222;28;20131;-84
2023/05/21 10:27:05;;;;;;;13.68;12.35;;;;;;;29.54;34.95;101447.22;5059438;28;20358;-84
2023/05/21 10:29:31;;;;;;;14.02;12.73;;;;;;;30.07;34.48;101433.44;5049024;28;20280;-84
2023/05/21 10:32:00;;;;;;;12.93;11.75;;;;;;;30.28;34.39;101430.75;5061327;28;20602;-84
2023/05/21 10:34:26;;;;;;;13.95;12.27;;;;;;;30.63;33.40;101431.75;5052940;28;20039;-85
2023/05/21 10:36:54;;;;;;;13.45;12.10;;;;;;;31.25;33.14;101424.75;5037289;28;20520;-84
2023/05/21 10:39:22;;;;;;;13.80;12.50;;;;;;;31.98;31.99;101428.00;5060686;28;20426;-82
2023/05/21 10:42:00;;;;;;;12.32;11.23;;;;;;;32.62;31.82;101413.81;5055476;28;20079;-84
2023/05/21 10:45:02;;;;;;;13.15;11.95;;;;;;;32.69;31.72;101417.44;5060744;28;20111;-84
2023/05/21 10:47:57;;;;;;;14.00;12.48;;;;;;;33.37;30.72;101414.47;5055370;28;20399;-85
2023/05/21 10:50:56;;;;;;;13.85;12.55;;;;;;;33.80;29.54;101426.91;5059857;28;20470;-85
2023/05/21 10:53:36;;;;;;;14.30;12.82;;;;;;;33.31;28.98;101415.31;5051799;28;20036;-84
2023/05/21 10:56:05;;;;;;;13.88;12.43;;;;;;;33.67;29.16;101417.59;5050501;28;20036;-85
2023/05/21 10:59:01;;;;;;;14.05;12.68;;;;;;;34.15;28.78;101411.72;5039795;28;20024;-85
2023/05/21 11:01:34;;;;;;;13.27;11.98;;;;;;;34.79;28.85;101409.84;5059774;28;20024;-84
2023/05/21 11:04:01;;;;;;;13.98;12.55;;;;;;;34.90;26.55;101409.09;5060694;28;20263;-83
2023/05/21 11:06:26;;;;;;;14.20;12.70;;;;;;;34.02;28.05;101409.00;5056215;28;20419;-84
2023/05/21 11:08:52;;;;;;;13.93;12.63;;;;;;;33.97;28.26;101396.94;5055742;28;20059;-85
2023/05/21 11:11:44;;;;;;;15.15;12.93;;;;;;;34.90;28.78;101397.19;5050095;28;20083;-83
2023/05/21 11:14:33;;;;;;;14.20;12.80;;;;;;;35.60;27.25;101397.84;5052601;28;20108;-82
2023/05/21 11:17:03;;;;;;;14.05;12.75;;;;;;;35.02;26.59;101389.06;5054278;28;20033;-83
2023/05/21 11:19:42;;;;;;;14.05;12.75;;;;;;;34.74;27.88;101389.47;5041162;28;20020;-83